Time;durP1;ratioP1;P1;durP2;ratioP2;P2;SDS_P1;SDS_P2;PMS_P1;PMS_P2;Temp;Humidity;BMP_temperature;BMP_pressure;BME280_temperature;BME280_humidity;BME280_pressure;Samples;Min_cycle;Max_cycle;Signal;HPM_P1;HPM_P2
2023/04/06 00:01:39;;;;;;;11.10;4.90;;;2.80;99.90;;;;;;5051300;28;20049;-79
2023/04/06 00:04:05;;;;;;;11.85;6.32;;;2.80;99.90;;;;;;5051235;28;20421;-80
2023/04/06 00:06:31;;;;;;;9.90;6.28;;;3.10;99.90;;;;;;5051322;28;20036;-76
2023/04/06 00:08:58;;;;;;;12.85;5.50;;;2.90;99.90;;;;;;5050038;28;20049;-80
2023/04/06 00:11:24;;;;;;;8.02;5.03;;;2.70;99.90;;;;;;5049997;28;20068;-81
2023/04/06 00:13:50;;;;;;;8.40;5.60;;;2.60;99.90;;;;;;5051125;28;20047;-78
2023/04/06 00:16:16;;;;;;;9.30;5.22;;;2.80;99.90;;;;;;5051135;28;20148;-78
2023/04/06 00:18:42;;;;;;;9.40;5.68;;;2.60;99.90;;;;;;5051195;28;20165;-78
2023/04/06 00:21:08;;;;;;;10.20;5.47;;;2.60;99.90;;;;;;5051210;28;20060;-78
2023/04/06 00:23:33;;;;;;;13.93;5.30;;;2.50;99.90;;;;;;5050966;28;20449;-80
2023/04/06 00:25:59;;;;;;;8.45;4.93;;;2.50;99.90;;;;;;5049811;28;20089;-73
2023/04/06 00:28:26;;;;;;;6.80;5.07;;;3.00;99.90;;;;;;5049750;28;20083;-73
2023/04/06 00:30:55;;;;;;;10.70;4.90;;;2.50;99.90;;;;;;5050891;28;20127;-72
2023/04/06 00:33:21;;;;;;;9.15;5.35;;;2.60;99.90;;;;;;5049380;28;20088;-72
2023/04/06 00:35:47;;;;;;;6.85;5.10;;;2.40;99.90;;;;;;5049229;28;20065;-72
2023/04/06 00:38:13;;;;;;;12.73;5.35;;;2.40;99.90;;;;;;5050902;28;20045;-72
2023/04/06 00:40:39;;;;;;;9.77;4.65;;;2.30;99.90;;;;;;5050292;28;20049;-72
2023/04/06 00:43:10;;;;;;;9.10;5.68;;;2.30;99.90;;;;;;5049338;28;20064;-73
2023/04/06 00:45:38;;;;;;;10.05;5.22;;;2.30;99.90;;;;;;5050639;28;20048;-73
2023/04/06 00:48:05;;;;;;;9.65;4.78;;;2.30;99.90;;;;;;5049258;28;20132;-71
2023/04/06 00:50:30;;;;;;;9.32;5.18;;;2.20;99.90;;;;;;5049102;28;20095;-72
2023/04/06 00:52:56;;;;;;;8.95;5.05;;;2.20;99.90;;;;;;5050675;28;20490;-71
2023/04/06 00:55:22;;;;;;;7.90;4.88;;;2.50;99.90;;;;;;5050332;28;20087;-71
2023/04/06 00:57:48;;;;;;;10.65;4.65;;;2.20;99.90;;;;;;5050401;28;20401;-73
2023/04/06 01:00:14;;;;;;;8.13;5.28;;;2.20;99.90;;;;;;5050578;28;20045;-72
2023/04/06 01:02:40;;;;;;;9.40;5.20;;;2.20;99.90;;;;;;5050423;28;20045;-72
2023/04/06 01:05:06;;;;;;;12.18;5.22;;;2.20;99.90;;;;;;5048507;28;20512;-72
2023/04/06 01:07:32;;;;;;;8.90;4.55;;;2.10;99.90;;;;;;5050199;28;20041;-72
2023/04/06 01:09:58;;;;;;;9.18;4.72;;;2.10;99.90;;;;;;5050090;28;20504;-73
2023/04/06 01:12:24;;;;;;;6.40;4.35;;;2.60;99.90;;;;;;5050311;28;20045;-72
2023/04/06 01:14:50;;;;;;;8.90;4.78;;;2.10;99.90;;;;;;5048401;28;20099;-72
2023/04/06 01:17:16;;;;;;;10.95;5.15;;;2.10;99.90;;;;;;5049769;28;20474;-72
2023/04/06 01:19:41;;;;;;;9.82;4.82;;;2.10;99.90;;;;;;5031916;28;20592;-72
2023/04/06 01:22:07;;;;;;;11.00;4.32;;;2.00;99.90;;;;;;5049996;28;20383;-72
2023/04/06 01:24:33;;;;;;;7.00;4.53;;;2.10;99.90;;;;;;5050032;28;20121;-73
2023/04/06 01:27:00;;;;;;;13.55;4.95;;;2.00;99.90;;;;;;5049205;28;20476;-73
2023/04/06 01:29:26;;;;;;;9.82;4.95;;;2.00;99.90;;;;;;5048799;28;20449;-71
2023/04/06 01:31:52;;;;;;;9.10;5.05;;;2.00;99.90;;;;;;5049693;28;20036;-71
2023/04/06 01:34:17;;;;;;;8.27;5.13;;;2.00;99.90;;;;;;5048109;28;20084;-72
2023/04/06 01:36:43;;;;;;;8.00;4.85;;;2.00;99.90;;;;;;5048636;28;20041;-72
2023/04/06 01:39:09;;;;;;;7.72;4.75;;;2.00;99.90;;;;;;5049952;28;20077;-73
2023/04/06 01:41:35;;;;;;;9.30;4.85;;;1.90;99.90;;;;;;5049677;28;20040;-73
2023/04/06 01:44:01;;;;;;;10.45;4.40;;;1.90;99.90;;;;;;5049632;28;20045;-72
2023/04/06 01:46:27;;;;;;;7.93;4.22;;;1.90;99.90;;;;;;5048731;28;20446;-71
2023/04/06 01:48:52;;;;;;;8.73;4.90;;;2.40;99.90;;;;;;5049870;28;20155;-72
2023/04/06 01:51:18;;;;;;;8.98;4.30;;;2.10;99.90;;;;;;5048164;28;20052;-72
2023/04/06 01:53:44;;;;;;;8.35;5.03;;;1.90;99.90;;;;;;5048440;28;20045;-72
2023/04/06 01:56:10;;;;;;;9.30;5.13;;;1.90;99.90;;;;;;5049546;28;20196;-72
2023/04/06 01:58:35;;;;;;;8.50;4.72;;;2.30;99.90;;;;;;5049525;28;20029;-73
2023/04/06 02:01:01;;;;;;;8.07;4.47;;;1.80;99.90;;;;;;5045883;28;20532;-72
2023/04/06 02:03:27;;;;;;;7.88;4.88;;;2.30;99.90;;;;;;5035613;28;20087;-72
2023/04/06 02:05:52;;;;;;;12.07;4.60;;;1.80;99.90;;;;;;5048060;28;20087;-72
2023/04/06 02:08:18;;;;;;;10.27;4.88;;;2.30;99.90;;;;;;5048137;28;20060;-72
2023/04/06 02:10:44;;;;;;;7.85;4.68;;;2.40;99.90;;;;;;5047648;28;20048;-74
2023/04/06 02:13:09;;;;;;;7.97;4.95;;;1.80;99.90;;;;;;5048287;28;20099;-77
2023/04/06 02:15:35;;;;;;;8.20;5.63;;;1.80;99.90;;;;;;5049670;28;20585;-72
2023/04/06 02:18:01;;;;;;;7.50;4.60;;;1.80;99.90;;;;;;5047737;28;20049;-71
2023/04/06 02:20:26;;;;;;;7.50;4.65;;;1.70;99.90;;;;;;5047657;28;20103;-76
2023/04/06 02:22:52;;;;;;;8.98;4.72;;;1.70;99.90;;;;;;5049144;28;20500;-72
2023/04/06 02:25:18;;;;;;;8.18;4.80;;;2.50;99.90;;;;;;5047524;28;20041;-74
2023/04/06 02:27:43;;;;;;;10.23;4.55;;;1.70;99.90;;;;;;5013408;28;20053;-76
2023/04/06 02:30:10;;;;;;;9.00;5.00;;;1.70;99.90;;;;;;5030615;28;20048;-72
2023/04/06 02:32:35;;;;;;;8.10;4.75;;;1.60;99.90;;;;;;5043207;28;20048;-72
2023/04/06 02:35:01;;;;;;;8.13;4.53;;;1.70;99.90;;;;;;5048640;28;20614;-77
2023/04/06 02:37:27;;;;;;;7.72;4.50;;;1.60;99.90;;;;;;5050222;28;20405;-75
2023/04/06 02:39:52;;;;;;;8.75;4.78;;;1.60;99.90;;;;;;5054464;28;20579;-74
2023/04/06 02:42:18;;;;;;;9.73;4.95;;;1.70;99.90;;;;;;5054120;28;20131;-75
2023/04/06 02:44:44;;;;;;;10.30;4.60;;;1.60;99.90;;;;;;5052050;28;20110;-74
2023/04/06 02:47:10;;;;;;;9.88;5.22;;;1.80;99.90;;;;;;5051733;28;20099;-78
2023/04/06 02:49:36;;;;;;;8.68;4.60;;;1.60;99.90;;;;;;5051310;28;20049;-74
2023/04/06 02:52:02;;;;;;;8.15;4.80;;;2.00;99.90;;;;;;5034440;28;20064;-74
2023/04/06 02:54:28;;;;;;;8.65;4.63;;;1.60;99.90;;;;;;5052808;28;20088;-74
2023/04/06 02:56:54;;;;;;;9.77;4.85;;;1.50;99.90;;;;;;5050877;28;20091;-77
2023/04/06 02:59:20;;;;;;;8.02;4.50;;;1.50;99.90;;;;;;5051465;28;20048;-76
2023/04/06 03:01:45;;;;;;;8.32;4.78;;;2.00;99.90;;;;;;5051125;28;20052;-78
2023/04/06 03:04:11;;;;;;;8.73;4.38;;;1.50;99.90;;;;;;5044463;28;20129;-73
2023/04/06 03:06:37;;;;;;;10.07;4.70;;;1.50;99.90;;;;;;5032566;28;20049;-73
2023/04/06 03:09:03;;;;;;;10.02;4.47;;;2.30;99.90;;;;;;5032234;28;20371;-73
2023/04/06 03:11:29;;;;;;;9.45;4.65;;;1.40;99.90;;;;;;5026058;28;20049;-80
2023/04/06 03:13:55;;;;;;;8.88;4.50;;;1.40;99.90;;;;;;5052511;28;20041;-72
2023/04/06 03:16:21;;;;;;;7.47;3.95;;;2.00;99.90;;;;;;5052117;28;20044;-75
2023/04/06 03:18:47;;;;;;;10.23;4.78;;;2.00;99.90;;;;;;5052084;28;20132;-78
2023/04/06 03:21:15;;;;;;;7.05;4.55;;;1.40;99.90;;;;;;5052254;28;20511;-79
2023/04/06 03:23:41;;;;;;;11.90;4.85;;;1.40;99.90;;;;;;5052055;28;20146;-78
2023/04/06 03:26:06;;;;;;;7.35;4.28;;;1.70;99.90;;;;;;5050588;28;20049;-76
2023/04/06 03:28:32;;;;;;;8.75;4.85;;;1.40;99.90;;;;;;5050499;28;20072;-73
2023/04/06 03:30:58;;;;;;;6.43;4.07;;;1.40;99.90;;;;;;5051861;28;20045;-80
2023/04/06 03:33:26;;;;;;;7.63;4.47;;;1.40;99.90;;;;;;5052084;28;20457;-79
2023/04/06 03:35:52;;;;;;;9.90;5.30;;;1.30;99.90;;;;;;5050348;28;20060;-78
2023/04/06 03:38:18;;;;;;;9.55;4.90;;;1.30;99.90;;;;;;5051581;28;20045;-73
2023/04/06 03:40:44;;;;;;;10.50;4.57;;;1.30;99.90;;;;;;5033168;28;20048;-73
2023/04/06 03:43:10;;;;;;;8.20;5.32;;;1.30;99.90;;;;;;5030589;28;20107;-73
2023/04/06 03:45:35;;;;;;;9.65;5.05;;;1.70;99.90;;;;;;5032004;28;20046;-72
2023/04/06 03:48:01;;;;;;;7.47;5.03;;;1.20;99.90;;;;;;5030630;28;20048;-71
2023/04/06 03:50:26;;;;;;;8.63;4.78;;;1.20;99.90;;;;;;5030633;28;20129;-72
2023/04/06 03:52:52;;;;;;;7.97;4.55;;;1.20;99.90;;;;;;5031821;28;20787;-73
2023/04/06 03:55:18;;;;;;;8.00;4.68;;;1.60;99.90;;;;;;5035073;28;20101;-76
2023/04/06 03:57:44;;;;;;;9.10;5.07;;;1.20;99.90;;;;;;5051750;28;20402;-75
2023/04/06 04:00:10;;;;;;;8.55;4.72;;;1.20;99.90;;;;;;5049079;28;20433;-73
2023/04/06 04:02:36;;;;;;;7.40;4.72;;;1.20;99.90;;;;;;5031611;28;20108;-72
2023/04/06 04:05:02;;;;;;;9.98;5.65;;;1.50;99.90;;;;;;5036786;28;20069;-72
2023/04/06 04:07:27;;;;;;;12.10;5.18;;;1.20;99.90;;;;;;5051638;28;20045;-72
2023/04/06 04:09:53;;;;;;;8.00;5.05;;;1.20;99.90;;;;;;5051093;28;20052;-73
2023/04/06 04:12:19;;;;;;;10.05;4.82;;;1.20;99.90;;;;;;5042707;28;20049;-72
2023/04/06 04:14:44;;;;;;;11.07;5.00;;;1.20;99.90;;;;;;5051172;28;20060;-73
2023/04/06 04:17:10;;;;;;;7.13;4.75;;;1.20;99.90;;;;;;5049568;28;20140;-73
2023/04/06 04:19:36;;;;;;;10.48;5.20;;;1.10;99.90;;;;;;5051062;28;20081;-72
2023/04/06 04:22:04;;;;;;;8.30;5.00;;;1.10;99.90;;;;;;5051208;28;20060;-73
2023/04/06 04:24:30;;;;;;;7.15;4.78;;;1.70;99.90;;;;;;5051053;28;20132;-72
2023/04/06 04:26:56;;;;;;;9.48;5.20;;;1.20;99.90;;;;;;5050709;28;20132;-72
2023/04/06 04:29:22;;;;;;;9.55;5.50;;;1.10;99.90;;;;;;5050875;28;20056;-73
2023/04/06 04:31:48;;;;;;;10.57;5.72;;;1.10;99.90;;;;;;5051031;28;20037;-73
2023/04/06 04:34:15;;;;;;;9.60;5.60;;;1.10;99.90;;;;;;5050930;28;20664;-73
2023/04/06 04:36:44;;;;;;;9.57;5.10;;;1.00;99.90;;;;;;5050997;28;20073;-71
2023/04/06 04:39:09;;;;;;;8.15;4.93;;;1.00;99.90;;;;;;5050968;28;20175;-74
2023/04/06 04:41:35;;;;;;;8.88;5.05;;;1.00;99.90;;;;;;5047354;28;20543;-73
2023/04/06 04:44:01;;;;;;;9.32;5.32;;;1.00;99.90;;;;;;5049458;28;20045;-72
2023/04/06 04:46:27;;;;;;;8.98;5.28;;;1.40;99.90;;;;;;5049095;28;20084;-72
2023/04/06 04:48:52;;;;;;;7.65;5.28;;;1.00;99.90;;;;;;5048958;28;20048;-73
2023/04/06 04:51:19;;;;;;;12.55;5.15;;;0.90;99.90;;;;;;5050637;28;20044;-72
2023/04/06 04:53:45;;;;;;;13.23;5.57;;;1.60;99.90;;;;;;5050697;28;20123;-72
2023/04/06 04:56:11;;;;;;;9.57;5.82;;;0.90;99.90;;;;;;5050560;28;20131;-72
2023/04/06 04:58:36;;;;;;;11.57;5.50;;;0.90;99.90;;;;;;5049743;28;20048;-72
2023/04/06 05:01:02;;;;;;;8.77;5.65;;;0.90;99.90;;;;;;5050268;28;20429;-72
2023/04/06 05:03:28;;;;;;;13.32;5.63;;;0.90;99.90;;;;;;5050300;28;20063;-73
2023/04/06 05:05:54;;;;;;;9.05;5.20;;;0.90;99.90;;;;;;5048884;28;20055;-72
2023/04/06 05:08:20;;;;;;;9.90;6.03;;;0.90;99.90;;;;;;5050285;28;20136;-72
2023/04/06 05:10:46;;;;;;;9.52;5.55;;;0.90;99.90;;;;;;5046796;28;20220;-72
2023/04/06 05:13:12;;;;;;;12.82;5.30;;;0.90;99.90;;;;;;5040982;28;20045;-72
2023/04/06 05:15:38;;;;;;;11.20;5.93;;;0.80;99.90;;;;;;5049889;28;20055;-72
2023/04/06 05:18:10;;;;;;;12.68;5.50;;;0.80;99.90;;;;;;5049718;28;20135;-72
2023/04/06 05:20:36;;;;;;;11.25;5.32;;;0.80;99.90;;;;;;5048684;28;20048;-72
2023/04/06 05:23:01;;;;;;;11.18;6.03;;;0.80;99.90;;;;;;5048514;28;20087;-72
2023/04/06 05:25:27;;;;;;;11.93;5.65;;;0.80;99.90;;;;;;5049680;28;20382;-72
2023/04/06 05:27:53;;;;;;;12.73;6.13;;;0.90;99.90;;;;;;5048127;28;20084;-75
2023/04/06 05:30:20;;;;;;;9.73;5.88;;;1.30;99.90;;;;;;5049762;28;20482;-72
2023/04/06 05:32:46;;;;;;;9.10;5.78;;;0.80;99.90;;;;;;5048479;28;20055;-72
2023/04/06 05:35:12;;;;;;;12.77;6.45;;;0.90;99.90;;;;;;5049723;28;20041;-71
2023/04/06 05:37:38;;;;;;;9.57;5.88;;;0.90;99.90;;;;;;5049785;28;20059;-74
2023/04/06 05:40:04;;;;;;;11.88;6.30;;;0.90;99.90;;;;;;5048166;28;20048;-71
2023/04/06 05:42:51;;;;;;;10.50;5.57;;;1.00;99.90;;;;;;5048935;28;20052;-73
2023/04/06 05:45:18;;;;;;;11.82;6.00;;;1.00;99.90;;;;;;5048143;28;20307;-71
2023/04/06 05:47:44;;;;;;;11.13;6.05;;;1.00;99.90;;;;;;5049511;28;20041;-73
2023/04/06 05:50:15;;;;;;;11.95;5.78;;;1.10;99.90;;;;;;5049252;28;20087;-72
2023/04/06 05:52:46;;;;;;;12.18;5.75;;;1.10;99.90;;;;;;5049344;28;20124;-72
2023/04/06 05:55:12;;;;;;;13.38;6.30;;;1.10;99.90;;;;;;5049589;28;20045;-73
2023/04/06 05:57:37;;;;;;;9.18;5.88;;;1.20;99.90;;;;;;5047770;28;20134;-75
2023/04/06 06:00:06;;;;;;;15.93;6.70;;;1.60;99.90;;;;;;5048051;28;20044;-72
2023/04/06 06:02:32;;;;;;;12.27;5.75;;;1.20;99.90;;;;;;5047897;28;20080;-72
2023/04/06 06:04:57;;;;;;;9.80;5.68;;;1.30;99.90;;;;;;5047642;28;20091;-72
2023/04/06 06:07:23;;;;;;;14.05;5.95;;;1.30;99.90;;;;;;5047755;28;20160;-73
2023/04/06 06:09:49;;;;;;;11.57;6.97;;;1.30;99.90;;;;;;5047823;28;20052;-74
2023/04/06 06:12:15;;;;;;;10.60;6.60;;;1.40;99.90;;;;;;5028970;28;20413;-72
2023/04/06 06:14:41;;;;;;;10.50;6.30;;;2.00;99.90;;;;;;5047831;28;20045;-72
2023/04/06 06:17:07;;;;;;;13.75;6.78;;;1.50;99.90;;;;;;5049175;28;20205;-72
2023/04/06 06:19:32;;;;;;;13.88;6.82;;;1.50;99.90;;;;;;5049011;28;20041;-73
2023/04/06 06:21:59;;;;;;;12.98;6.55;;;1.60;99.90;;;;;;5047941;28;20048;-72
2023/04/06 06:24:25;;;;;;;10.05;6.68;;;1.70;99.90;;;;;;5047437;28;20052;-72
2023/04/06 06:26:51;;;;;;;12.68;7.25;;;1.70;99.90;;;;;;5047671;28;20456;-73
2023/04/06 06:29:16;;;;;;;13.07;6.47;;;1.70;99.90;;;;;;5047730;28;20564;-72
2023/04/06 06:31:42;;;;;;;14.55;7.30;;;1.80;99.90;;;;;;5049641;28;20431;-72
2023/04/06 06:34:07;;;;;;;13.45;6.88;;;1.80;99.90;;;;;;5048977;28;20037;-72
2023/04/06 06:36:35;;;;;;;11.35;6.28;;;1.90;99.90;;;;;;5046930;28;20219;-70
2023/04/06 06:39:03;;;;;;;12.23;6.65;;;2.00;99.90;;;;;;5049493;28;20052;-73
2023/04/06 06:41:28;;;;;;;11.75;6.50;;;2.10;99.90;;;;;;5049683;28;20049;-73
2023/04/06 06:43:54;;;;;;;13.52;6.82;;;2.10;99.90;;;;;;5050076;28;20124;-75
2023/04/06 06:46:21;;;;;;;11.63;6.80;;;2.20;99.90;;;;;;5049467;28;20045;-73
2023/04/06 06:48:46;;;;;;;14.77;7.25;;;2.40;99.90;;;;;;5050062;28;20139;-80
2023/04/06 06:51:12;;;;;;;11.68;7.00;;;2.40;99.90;;;;;;5049221;28;20553;-76
2023/04/06 06:53:38;;;;;;;11.57;7.25;;;2.50;99.90;;;;;;5050055;28;20041;-73
2023/04/06 06:56:03;;;;;;;9.82;7.13;;;3.10;99.90;;;;;;5048582;28;20092;-73
2023/04/06 06:58:29;;;;;;;12.82;7.15;;;2.60;99.90;;;;;;5030577;28;20819;-73
2023/04/06 07:00:59;;;;;;;11.90;7.20;;;2.70;99.90;;;;;;5047397;28;20539;-75
2023/04/06 07:03:25;;;;;;;10.75;6.93;;;3.10;99.90;;;;;;5049259;28;20079;-72
2023/04/06 07:05:53;;;;;;;10.77;7.07;;;2.90;99.90;;;;;;5049198;28;20048;-72
2023/04/06 07:08:23;;;;;;;11.88;7.53;;;3.00;99.90;;;;;;5049095;28;20049;-73
2023/04/06 07:10:52;;;;;;;13.45;7.85;;;3.70;99.90;;;;;;5049032;28;20127;-74
2023/04/06 07:13:22;;;;;;;12.70;7.47;;;3.10;99.90;;;;;;5047592;28;20437;-72
2023/04/06 07:15:49;;;;;;;14.32;7.32;;;3.30;99.90;;;;;;5047725;28;20501;-72
2023/04/06 07:18:14;;;;;;;14.68;8.38;;;3.40;99.90;;;;;;5048774;28;20532;-72
2023/04/06 07:20:40;;;;;;;14.30;7.70;;;3.50;99.90;;;;;;5049007;28;20091;-75
2023/04/06 07:23:06;;;;;;;14.02;7.72;;;3.80;99.90;;;;;;5049397;28;20072;-74
2023/04/06 07:25:32;;;;;;;16.55;7.38;;;3.70;99.90;;;;;;5050349;28;20049;-72
2023/04/06 07:27:57;;;;;;;16.25;7.93;;;3.90;99.90;;;;;;5052354;28;20094;-72
2023/04/06 07:30:26;;;;;;;17.80;7.78;;;4.00;99.90;;;;;;5050792;28;20057;-73
2023/04/06 07:32:51;;;;;;;11.85;8.27;;;4.10;99.90;;;;;;5052416;28;20063;-73
2023/04/06 07:35:17;;;;;;;15.85;8.70;;;4.30;99.90;;;;;;5051993;28;20716;-75
2023/04/06 07:37:43;;;;;;;13.35;8.13;;;4.40;99.90;;;;;;5040101;28;20081;-74
2023/04/06 07:40:09;;;;;;;13.05;7.68;;;4.50;99.90;;;;;;5032065;28;20395;-74
2023/04/06 07:42:35;;;;;;;18.63;8.27;;;4.70;99.90;;;;;;5031095;28;20045;-72
2023/04/06 07:45:00;;;;;;;13.32;7.82;;;4.80;99.90;;;;;;5030729;28;20830;-72
2023/04/06 07:47:26;;;;;;;14.48;8.35;;;5.00;99.90;;;;;;5030902;28;20347;-76
2023/04/06 07:49:54;;;;;;;14.60;8.27;;;5.10;99.90;;;;;;5046876;28;20468;-73
2023/04/06 07:52:20;;;;;;;15.25;8.02;;;5.30;99.90;;;;;;5051899;28;20083;-78
2023/04/06 07:54:45;;;;;;;14.32;8.02;;;5.60;99.90;;;;;;5051771;28;20401;-74
2023/04/06 07:57:11;;;;;;;12.60;7.57;;;5.60;99.90;;;;;;5051768;28;20458;-72
2023/04/06 07:59:37;;;;;;;13.27;7.60;;;5.80;99.90;;;;;;5050195;28;20083;-71
2023/04/06 08:02:02;;;;;;;12.60;7.47;;;5.90;99.90;;;;;;5052202;28;20394;-75
2023/04/06 08:04:28;;;;;;;13.50;8.10;;;6.10;99.90;;;;;;5050927;28;20057;-72
2023/04/06 08:06:54;;;;;;;13.95;7.60;;;6.30;99.90;;;;;;5052194;28;20064;-74
2023/04/06 08:09:19;;;;;;;14.02;8.77;;;6.50;99.90;;;;;;5051740;28;20044;-75
2023/04/06 08:11:46;;;;;;;16.70;8.43;;;6.60;99.90;;;;;;5052300;28;20056;-73
2023/04/06 08:14:11;;;;;;;19.90;9.23;;;6.90;99.90;;;;;;5052027;28;20155;-72
2023/04/06 08:16:37;;;;;;;13.98;8.32;;;7.10;99.90;;;;;;5050615;28;20132;-76
2023/04/06 08:19:02;;;;;;;15.40;9.10;;;7.30;99.90;;;;;;5051745;28;20064;-78
2023/04/06 08:21:28;;;;;;;12.30;7.57;;;7.50;99.90;;;;;;5050423;28;20413;-75
2023/04/06 08:23:54;;;;;;;12.65;7.35;;;7.80;99.90;;;;;;5050108;28;20064;-72
2023/04/06 08:26:19;;;;;;;14.27;8.13;;;8.10;99.90;;;;;;5049179;28;20056;-73
2023/04/06 08:28:45;;;;;;;13.25;8.00;;;8.40;99.90;;;;;;5050761;28;20125;-72
2023/04/06 08:31:11;;;;;;;12.18;7.40;;;8.70;99.90;;;;;;5051431;28;20044;-73
2023/04/06 08:33:38;;;;;;;13.88;8.20;;;8.80;99.90;;;;;;5033312;28;20052;-76
2023/04/06 08:36:12;;;;;;;12.48;7.95;;;9.00;99.90;;;;;;5033164;28;20053;-75
2023/04/06 08:38:38;;;;;;;13.05;8.02;;;9.10;99.90;;;;;;5051487;28;20053;-72
2023/04/06 08:41:09;;;;;;;11.43;7.78;;;9.30;99.90;;;;;;5049348;28;20056;-74
2023/04/06 08:43:42;;;;;;;16.27;8.55;;;9.40;99.90;;;;;;5047804;28;20052;-75
2023/04/06 08:46:09;;;;;;;13.35;7.97;;;9.60;99.90;;;;;;5049812;28;20103;-76
2023/04/06 08:48:36;;;;;;;11.73;8.18;;;9.90;99.90;;;;;;5051448;28;20105;-83
2023/04/06 08:51:03;;;;;;;11.88;8.30;;;10.10;99.90;;;;;;5049958;28;20106;-77
2023/04/06 08:53:29;;;;;;;14.07;8.38;;;10.30;99.90;;;;;;5051345;28;20079;-81
2023/04/06 08:55:57;;;;;;;17.48;7.95;;;10.50;99.90;;;;;;5049896;28;20454;-78
2023/04/06 08:58:23;;;;;;;13.75;7.97;;;10.70;99.90;;;;;;5051439;28;20044;-78
2023/04/06 09:00:50;;;;;;;11.43;7.68;;;10.80;99.90;;;;;;5051087;28;20459;-80
2023/04/06 09:03:17;;;;;;;15.23;8.45;;;10.90;99.90;;;;;;5051420;28;20052;-79
2023/04/06 09:05:44;;;;;;;16.92;8.10;;;11.00;99.90;;;;;;5049766;28;20087;-74
2023/04/06 09:08:10;;;;;;;12.73;7.75;;;11.10;99.90;;;;;;5051157;28;20087;-75
2023/04/06 09:10:40;;;;;;;12.75;9.23;;;11.20;99.90;;;;;;5049769;28;20501;-81
2023/04/06 09:13:06;;;;;;;14.32;8.27;;;10.70;99.80;;;;;;5050648;28;20068;-85
2023/04/06 09:15:32;;;;;;;12.23;8.02;;;11.30;99.70;;;;;;5049255;28;20045;-73
2023/04/06 09:17:58;;;;;;;13.85;9.15;;;11.30;99.50;;;;;;5049609;28;20382;-75
2023/04/06 09:20:30;;;;;;;17.88;10.10;;;11.40;98.50;;;;;;5049541;28;20139;-78
2023/04/06 09:22:56;;;;;;;14.38;9.10;;;11.40;98.50;;;;;;5050876;28;20060;-75
2023/04/06 09:25:26;;;;;;;18.85;9.35;;;11.50;98.50;;;;;;5049867;28;20367;-79
2023/04/06 09:28:06;;;;;;;14.48;9.57;;;11.50;97.80;;;;;;5050510;28;20048;-73
2023/04/06 09:30:32;;;;;;;21.38;10.63;;;11.50;95.30;;;;;;5050592;28;20057;-74
2023/04/06 09:32:59;;;;;;;20.23;10.98;;;11.50;97.00;;;;;;5050516;28;20094;-87
2023/04/06 09:35:29;;;;;;;16.75;10.10;;;11.50;97.10;;;;;;5032416;28;20084;-88
2023/04/06 09:37:55;;;;;;;17.33;10.40;;;11.60;97.10;;;;;;5050613;28;20048;-81
2023/04/06 09:40:22;;;;;;;17.13;10.30;;;11.50;96.90;;;;;;5050896;28;20049;-80
2023/04/06 09:42:52;;;;;;;19.00;10.35;;;11.60;96.80;;;;;;5050507;28;20155;-77
2023/04/06 09:45:18;;;;;;;15.75;10.52;;;11.60;96.60;;;;;;5050073;28;20087;-82
2023/04/06 09:47:45;;;;;;;23.98;10.18;;;11.80;96.20;;;;;;5049619;28;20426;-76
2023/04/06 09:50:13;;;;;;;16.83;10.68;;;11.80;96.40;;;;;;5048794;28;20409;-85
2023/04/06 09:52:51;;;;;;;17.23;10.18;;;12.00;96.20;;;;;;5049003;28;20045;-75
2023/04/06 09:55:24;;;;;;;16.98;11.13;;;12.10;96.00;;;;;;5050124;28;20045;-82
2023/04/06 09:58:06;;;;;;;23.60;12.15;;;12.30;95.30;;;;;;5050405;28;20514;-80
2023/04/06 10:00:35;;;;;;;19.45;13.18;;;12.30;95.20;;;;;;5049946;28;20057;-74
2023/04/06 10:03:32;;;;;;;24.25;13.65;;;12.30;96.00;;;;;;5050194;28;20131;-74
2023/04/06 10:06:04;;;;;;;27.55;15.93;;;12.30;94.90;;;;;;5048810;28;20060;-73
2023/04/06 10:08:31;;;;;;;40.75;17.75;;;12.30;95.50;;;;;;5048679;28;20041;-75
2023/04/06 10:10:58;;;;;;;26.50;14.10;;;12.40;96.00;;;;;;5048505;28;20131;-74
2023/04/06 10:13:24;;;;;;;22.88;14.30;;;12.50;95.50;;;;;;5049448;28;20142;-74
2023/04/06 10:15:51;;;;;;;20.13;13.45;;;12.60;95.20;;;;;;5044686;28;20033;-72
2023/04/06 10:18:19;;;;;;;24.48;13.75;;;12.60;95.10;;;;;;5048206;28;20100;-73
2023/04/06 10:21:08;;;;;;;20.45;13.50;;;12.60;94.80;;;;;;5048533;28;20683;-74
2023/04/06 10:23:44;;;;;;;25.33;13.77;;;12.70;93.90;;;;;;5050817;28;20041;-75
2023/04/06 10:26:21;;;;;;;19.60;13.27;;;12.70;94.20;;;;;;5049166;28;20108;-74
2023/04/06 10:28:48;;;;;;;21.92;13.85;;;12.80;93.70;;;;;;5046143;28;20041;-74
2023/04/06 10:31:14;;;;;;;21.08;14.50;;;13.00;94.30;;;;;;5046394;28;20045;-73
2023/04/06 10:33:41;;;;;;;23.20;13.60;;;13.20;94.50;;;;;;5034187;28;20501;-73
2023/04/06 10:36:22;;;;;;;20.55;13.98;;;13.20;93.90;;;;;;5049337;28;20049;-73
2023/04/06 10:39:00;;;;;;;22.50;14.77;;;13.40;93.40;;;;;;5050564;28;20107;-77
2023/04/06 10:41:41;;;;;;;26.63;15.00;;;13.30;93.20;;;;;;5048880;28;20045;-74
2023/04/06 10:44:06;;;;;;;21.02;14.05;;;13.30;94.10;;;;;;5048628;28;20055;-73
2023/04/06 10:46:34;;;;;;;27.95;15.07;;;13.40;94.60;;;;;;5049571;28;20045;-74
2023/04/06 10:49:12;;;;;;;24.70;15.40;;;13.40;93.70;;;;;;5031126;28;20060;-74
2023/04/06 10:51:39;;;;;;;24.83;16.33;;;13.60;94.10;;;;;;5049907;28;20048;-75
2023/04/06 10:54:06;;;;;;;29.40;17.52;;;13.80;94.20;;;;;;5048435;28;20041;-80
2023/04/06 10:56:34;;;;;;;33.60;17.52;;;13.80;94.00;;;;;;5049532;28;20045;-76
2023/04/06 10:59:00;;;;;;;25.20;16.58;;;13.80;93.40;;;;;;5049765;28;20057;-78
2023/04/06 11:01:27;;;;;;;27.23;18.45;;;13.90;93.60;;;;;;5051413;28;20135;-74
2023/04/06 11:03:55;;;;;;;28.15;18.48;;;14.10;93.00;;;;;;5053595;28;20041;-80
2023/04/06 11:06:23;;;;;;;26.40;17.92;;;14.20;92.90;;;;;;5035252;28;20382;-77
2023/04/06 11:08:49;;;;;;;27.85;19.00;;;14.30;93.20;;;;;;5037589;28;20041;-77
2023/04/06 11:11:18;;;;;;;24.20;16.52;;;14.40;93.30;;;;;;5039129;28;20080;-81
2023/04/06 11:13:52;;;;;;;26.98;17.80;;;14.50;92.80;;;;;;5053359;28;20532;-85
2023/04/06 11:16:23;;;;;;;34.75;18.42;;;14.60;92.50;;;;;;5052876;28;20048;-83
2023/04/06 11:18:52;;;;;;;30.27;18.73;;;14.50;91.90;;;;;;5051082;28;20131;-81
2023/04/06 11:21:18;;;;;;;26.48;16.75;;;14.40;91.90;;;;;;5051720;28;20053;-75
2023/04/06 11:23:44;;;;;;;28.25;18.63;;;14.60;92.40;;;;;;5053249;28;20449;-76
2023/04/06 11:26:14;;;;;;;31.65;20.67;;;14.50;92.00;;;;;;5053419;28;20124;-78
2023/04/06 11:28:42;;;;;;;33.03;19.50;;;14.40;91.50;;;;;;5051812;28;20049;-75
2023/04/06 11:31:09;;;;;;;28.98;19.77;;;14.20;91.30;;;;;;5052663;28;20076;-80
2023/04/06 11:33:37;;;;;;;31.02;20.17;;;14.00;90.50;;;;;;5052593;28;20079;-80
2023/04/06 11:36:03;;;;;;;27.38;18.40;;;13.80;90.80;;;;;;5051914;28;20041;-82
2023/04/06 11:38:29;;;;;;;29.60;20.17;;;13.80;91.30;;;;;;5052228;28;20041;-80
2023/04/06 11:40:55;;;;;;;28.35;19.95;;;13.90;91.10;;;;;;5052868;28;20123;-76
2023/04/06 11:43:30;;;;;;;32.25;20.08;;;13.90;90.60;;;;;;5034600;28;20128;-75
2023/04/06 11:46:03;;;;;;;27.10;19.02;;;14.00;90.30;;;;;;5052300;28;20656;-81
2023/04/06 11:48:30;;;;;;;28.38;18.20;;;14.00;90.90;;;;;;5051506;28;20051;-78
2023/04/06 11:50:57;;;;;;;31.33;19.70;;;13.90;90.40;;;;;;5051203;28;20428;-82
2023/04/06 11:53:23;;;;;;;32.88;21.17;;;14.00;90.90;;;;;;5052546;28;20389;-75
2023/04/06 11:55:49;;;;;;;29.60;20.42;;;14.10;90.90;;;;;;5053307;28;20123;-81
2023/04/06 11:58:15;;;;;;;27.65;18.70;;;14.10;90.60;;;;;;5053069;28;20056;-82
2023/04/06 12:00:44;;;;;;;34.67;19.35;;;14.00;90.60;;;;;;5051290;28;20145;-80
2023/04/06 12:03:14;;;;;;;27.60;18.95;;;14.10;90.70;;;;;;5052832;28;20040;-80
2023/04/06 12:05:39;;;;;;;29.20;19.40;;;14.00;90.40;;;;;;5051244;28;20041;-84
2023/04/06 12:08:05;;;;;;;29.95;19.77;;;14.00;90.20;;;;;;5053195;28;20095;-84
2023/04/06 12:10:31;;;;;;;27.65;19.05;;;13.90;90.40;;;;;;5051790;28;20052;-78
2023/04/06 12:12:57;;;;;;;32.30;19.20;;;13.90;90.00;;;;;;5051322;28;20056;-80
2023/04/06 12:15:22;;;;;;;30.75;19.42;;;13.80;90.30;;;;;;5052244;28;20072;-77
2023/04/06 12:17:49;;;;;;;27.92;18.88;;;13.70;90.10;;;;;;5050109;28;20040;-80
2023/04/06 12:20:15;;;;;;;33.00;20.42;;;13.60;90.20;;;;;;5049409;28;20056;-79
2023/04/06 12:22:41;;;;;;;28.55;19.27;;;13.60;90.30;;;;;;5050474;28;20098;-73
2023/04/06 12:25:07;;;;;;;28.92;18.83;;;13.60;90.20;;;;;;5050434;28;20053;-83
2023/04/06 12:27:33;;;;;;;32.03;19.83;;;13.50;90.20;;;;;;5051544;28;20048;-77
2023/04/06 12:29:58;;;;;;;27.45;18.58;;;13.40;90.20;;;;;;5050024;28;20481;-76
2023/04/06 12:32:24;;;;;;;30.92;19.58;;;13.50;90.30;;;;;;5049848;28;20097;-75
2023/04/06 12:34:52;;;;;;;32.03;19.83;;;13.50;90.50;;;;;;5050485;28;20052;-73
2023/04/06 12:37:18;;;;;;;30.08;19.90;;;13.50;90.70;;;;;;5049923;28;20056;-75
2023/04/06 12:39:44;;;;;;;31.13;19.60;;;13.50;90.60;;;;;;5033082;28;20045;-81
2023/04/06 12:42:12;;;;;;;31.20;19.45;;;13.50;90.40;;;;;;5051013;28;20127;-86
2023/04/06 12:44:38;;;;;;;28.35;18.80;;;13.50;90.40;;;;;;5049328;28;20060;-74